sensor_id;sensor_type;location;lat;lon;timestamp;pressure;altitude;pressure_sealevel;temperature;humidity
69842;BME280;57138;51.326;-0.068;2024-01-07T00:01:24;100338.88;;;2.33;100.00
69842;BME280;57138;51.326;-0.068;2024-01-07T00:03:51;100342.59;;;2.30;100.00
69842;BME280;57138;51.326;-0.068;2024-01-07T00:06:17;100320.59;;;2.10;100.00
69842;BME280;57138;51.326;-0.068;2024-01-07T00:08:43;100314.84;;;2.05;100.00
69842;BME280;57138;51.326;-0.068;2024-01-07T00:11:11;100286.72;;;1.85;100.00
69842;BME280;57138;51.326;-0.068;2024-01-07T00:13:38;100340.97;;;2.08;100.00
69842;BME280;57138;51.326;-0.068;2024-01-07T00:16:05;100300.59;;;1.87;100.00
69842;BME280;57138;51.326;-0.068;2024-01-07T00:18:30;100333.28;;;1.95;100.00
69842;BME280;57138;51.326;-0.068;2024-01-07T00:20:57;100326.00;;;1.88;100.00
69842;BME280;57138;51.326;-0.068;2024-01-07T00:23:23;100374.44;;;2.08;100.00
69842;BME280;57138;51.326;-0.068;2024-01-07T00:25:49;100312.13;;;1.65;100.00
69842;BME280;57138;51.326;-0.068;2024-01-07T00:28:15;100352.63;;;1.85;100.00
69842;BME280;57138;51.326;-0.068;2024-01-07T00:30:41;100344.47;;;1.88;100.00
69842;BME280;57138;51.326;-0.068;2024-01-07T00:33:07;100363.09;;;1.96;100.00
69842;BME280;57138;51.326;-0.068;2024-01-07T00:35:32;100374.38;;;1.98;100.00
69842;BME280;57138;51.326;-0.068;2024-01-07T00:37:58;100375.59;;;1.94;100.00
69842;BME280;57138;51.326;-0.068;2024-01-07T00:40:24;100374.91;;;1.92;100.00
69842;BME280;57138;51.326;-0.068;2024-01-07T00:42:50;100368.44;;;1.85;100.00
69842;BME280;57138;51.326;-0.068;2024-01-07T00:45:20;100376.38;;;1.85;100.00
69842;BME280;57138;51.326;-0.068;2024-01-07T00:47:47;100355.59;;;1.70;100.00
69842;BME280;57138;51.326;-0.068;2024-01-07T00:50:13;100388.84;;;1.83;100.00
69842;BME280;57138;51.326;-0.068;2024-01-07T00:52:39;100376.88;;;1.78;100.00
69842;BME280;57138;51.326;-0.068;2024-01-07T00:55:08;100383.34;;;1.74;100.00
69842;BME280;57138;51.326;-0.068;2024-01-07T00:57:33;100343.38;;;1.48;100.00
69842;BME280;57138;51.326;-0.068;2024-01-07T01:00:00;100378.59;;;1.68;100.00
69842;BME280;57138;51.326;-0.068;2024-01-07T01:02:30;100353.06;;;1.48;100.00
69842;BME280;57138;51.326;-0.068;2024-01-07T01:04:56;100390.94;;;1.68;100.00
69842;BME280;57138;51.326;-0.068;2024-01-07T01:07:21;100390.63;;;1.61;100.00
69842;BME280;57138;51.326;-0.068;2024-01-07T01:09:47;100396.84;;;1.60;100.00
69842;BME280;57138;51.326;-0.068;2024-01-07T01:12:13;100364.59;;;1.35;100.00
69842;BME280;57138;51.326;-0.068;2024-01-07T01:14:39;100389.81;;;1.49;100.00
69842;BME280;57138;51.326;-0.068;2024-01-07T01:17:05;100400.47;;;1.48;100.00
69842;BME280;57138;51.326;-0.068;2024-01-07T01:19:30;100337.16;;;1.05;100.00
69842;BME280;57138;51.326;-0.068;2024-01-07T01:21:56;100395.25;;;1.36;100.00
69842;BME280;57138;51.326;-0.068;2024-01-07T01:24:21;100398.72;;;1.37;100.00
69842;BME280;57138;51.326;-0.068;2024-01-07T01:26:47;100399.81;;;1.34;100.00
69842;BME280;57138;51.326;-0.068;2024-01-07T01:29:12;100389.16;;;1.24;100.00
69842;BME280;57138;51.326;-0.068;2024-01-07T01:31:37;100390.50;;;1.30;100.00
69842;BME280;57138;51.326;-0.068;2024-01-07T01:34:03;100403.66;;;1.30;100.00
69842;BME280;57138;51.326;-0.068;2024-01-07T01:36:31;100384.53;;;1.17;100.00
69842;BME280;57138;51.326;-0.068;2024-01-07T01:38:56;100402.47;;;1.23;100.00
69842;BME280;57138;51.326;-0.068;2024-01-07T01:41:22;100381.22;;;1.03;100.00
69842;BME280;57138;51.326;-0.068;2024-01-07T01:43:47;100381.22;;;1.03;100.00
69842;BME280;57138;51.326;-0.068;2024-01-07T01:46:13;100405.59;;;1.17;100.00
69842;BME280;57138;51.326;-0.068;2024-01-07T01:48:39;100401.78;;;1.10;100.00
69842;BME280;57138;51.326;-0.068;2024-01-07T01:51:06;100391.75;;;1.03;100.00
69842;BME280;57138;51.326;-0.068;2024-01-07T01:53:32;100416.25;;;1.15;100.00
69842;BME280;57138;51.326;-0.068;2024-01-07T01:56:00;100415.41;;;1.15;100.00
69842;BME280;57138;51.326;-0.068;2024-01-07T01:58:28;100412.31;;;1.10;100.00
69842;BME280;57138;51.326;-0.068;2024-01-07T02:00:54;100416.97;;;1.06;100.00
69842;BME280;57138;51.326;-0.068;2024-01-07T02:03:20;100426.69;;;1.05;100.00
69842;BME280;57138;51.326;-0.068;2024-01-07T02:05:50;100427.66;;;1.04;100.00
69842;BME280;57138;51.326;-0.068;2024-01-07T02:08:18;100430.31;;;1.04;100.00
69842;BME280;57138;51.326;-0.068;2024-01-07T02:10:44;100429.56;;;1.02;100.00
69842;BME280;57138;51.326;-0.068;2024-01-07T02:13:10;100416.66;;;0.88;100.00
69842;BME280;57138;51.326;-0.068;2024-01-07T02:15:36;100403.28;;;0.80;100.00
69842;BME280;57138;51.326;-0.068;2024-01-07T02:18:02;100414.28;;;0.85;100.00
69842;BME280;57138;51.326;-0.068;2024-01-07T02:20:28;100415.09;;;0.85;100.00
69842;BME280;57138;51.326;-0.068;2024-01-07T02:22:54;100436.28;;;0.95;100.00
69842;BME280;57138;51.326;-0.068;2024-01-07T02:25:20;100443.44;;;0.93;100.00
69842;BME280;57138;51.326;-0.068;2024-01-07T02:27:46;100426.47;;;0.86;100.00
69842;BME280;57138;51.326;-0.068;2024-01-07T02:30:12;100441.56;;;0.95;100.00
69842;BME280;57138;51.326;-0.068;2024-01-07T02:32:38;100434.03;;;0.91;100.00
69842;BME280;57138;51.326;-0.068;2024-01-07T02:35:04;100411.78;;;0.72;100.00
69842;BME280;57138;51.326;-0.068;2024-01-07T02:37:29;100431.00;;;0.84;100.00
69842;BME280;57138;51.326;-0.068;2024-01-07T02:39:55;100448.38;;;0.86;100.00
69842;BME280;57138;51.326;-0.068;2024-01-07T02:42:21;100424.06;;;0.71;100.00
69842;BME280;57138;51.326;-0.068;2024-01-07T02:44:47;100430.78;;;0.76;100.00
69842;BME280;57138;51.326;-0.068;2024-01-07T02:47:12;100421.81;;;0.67;100.00
69842;BME280;57138;51.326;-0.068;2024-01-07T02:49:38;100392.28;;;0.52;100.00
69842;BME280;57138;51.326;-0.068;2024-01-07T02:52:03;100451.59;;;0.79;100.00
69842;BME280;57138;51.326;-0.068;2024-01-07T02:54:29;100446.81;;;0.73;100.00
69842;BME280;57138;51.326;-0.068;2024-01-07T02:56:54;100439.88;;;0.71;100.00
69842;BME280;57138;51.326;-0.068;2024-01-07T02:59:20;100433.66;;;0.61;100.00
69842;BME280;57138;51.326;-0.068;2024-01-07T03:01:48;100448.50;;;0.74;100.00
69842;BME280;57138;51.326;-0.068;2024-01-07T03:04:15;100454.00;;;0.70;100.00
69842;BME280;57138;51.326;-0.068;2024-01-07T03:06:41;100460.91;;;0.71;100.00
69842;BME280;57138;51.326;-0.068;2024-01-07T03:09:07;100425.03;;;0.48;100.00
69842;BME280;57138;51.326;-0.068;2024-01-07T03:11:33;100447.06;;;0.58;100.00
69842;BME280;57138;51.326;-0.068;2024-01-07T03:13:58;100460.44;;;0.66;100.00
69842;BME280;57138;51.326;-0.068;2024-01-07T03:16:25;100451.09;;;0.62;100.00
69842;BME280;57138;51.326;-0.068;2024-01-07T03:18:51;100446.06;;;0.59;100.00
69842;BME280;57138;51.326;-0.068;2024-01-07T03:21:22;100457.69;;;0.68;100.00
69842;BME280;57138;51.326;-0.068;2024-01-07T03:23:50;100462.13;;;0.67;100.00
69842;BME280;57138;51.326;-0.068;2024-01-07T03:26:17;100444.66;;;0.55;100.00
69842;BME280;57138;51.326;-0.068;2024-01-07T03:28:43;100460.56;;;0.65;100.00
69842;BME280;57138;51.326;-0.068;2024-01-07T03:31:13;100434.25;;;0.53;100.00
69842;BME280;57138;51.326;-0.068;2024-01-07T03:33:40;100461.03;;;0.59;100.00
69842;BME280;57138;51.326;-0.068;2024-01-07T03:36:12;100465.22;;;0.61;100.00
69842;BME280;57138;51.326;-0.068;2024-01-07T03:38:39;100462.09;;;0.56;100.00
69842;BME280;57138;51.326;-0.068;2024-01-07T03:41:05;100444.53;;;0.45;100.00
69842;BME280;57138;51.326;-0.068;2024-01-07T03:43:31;100470.09;;;0.54;100.00
69842;BME280;57138;51.326;-0.068;2024-01-07T03:45:57;100452.31;;;0.47;100.00
69842;BME280;57138;51.326;-0.068;2024-01-07T03:48:22;100417.13;;;0.25;100.00
69842;BME280;57138;51.326;-0.068;2024-01-07T03:50:48;100470.22;;;0.53;100.00
69842;BME280;57138;51.326;-0.068;2024-01-07T03:53:15;100436.00;;;0.30;100.00
69842;BME280;57138;51.326;-0.068;2024-01-07T03:55:41;100457.56;;;0.47;100.00
69842;BME280;57138;51.326;-0.068;2024-01-07T03:58:07;100464.25;;;0.51;100.00
69842;BME280;57138;51.326;-0.068;2024-01-07T04:00:34;100465.69;;;0.55;100.00
69842;BME280;57138;51.326;-0.068;2024-01-07T04:03:00;100433.25;;;0.32;100.00
69842;BME280;57138;51.326;-0.068;2024-01-07T04:05:25;100455.88;;;0.46;100.00
69842;BME280;57138;51.326;-0.068;2024-01-07T04:07:51;100466.63;;;0.43;100.00
69842;BME280;57138;51.326;-0.068;2024-01-07T04:10:17;100472.13;;;0.40;100.00
69842;BME280;57138;51.326;-0.068;2024-01-07T04:12:43;100475.13;;;0.46;100.00
69842;BME280;57138;51.326;-0.068;2024-01-07T04:15:09;100466.88;;;0.40;100.00
69842;BME280;57138;51.326;-0.068;2024-01-07T04:17:34;100461.38;;;0.43;100.00
69842;BME280;57138;51.326;-0.068;2024-01-07T04:20:00;100476.09;;;0.45;100.00
69842;BME280;57138;51.326;-0.068;2024-01-07T04:22:25;100461.25;;;0.33;100.00
69842;BME280;57138;51.326;-0.068;2024-01-07T04:24:50;100469.88;;;0.46;100.00
69842;BME280;57138;51.326;-0.068;2024-01-07T04:27:16;100438.38;;;0.22;100.00
69842;BME280;57138;51.326;-0.068;2024-01-07T04:29:41;100459.56;;;0.32;100.00
69842;BME280;57138;51.326;-0.068;2024-01-07T04:32:07;100475.34;;;0.43;100.00
69842;BME280;57138;51.326;-0.068;2024-01-07T04:34:32;100483.88;;;0.47;100.00
69842;BME280;57138;51.326;-0.068;2024-01-07T04:36:59;100466.88;;;0.40;100.00
69842;BME280;57138;51.326;-0.068;2024-01-07T04:39:24;100481.72;;;0.52;100.00
69842;BME280;57138;51.326;-0.068;2024-01-07T04:41:49;100461.84;;;0.37;100.00
69842;BME280;57138;51.326;-0.068;2024-01-07T04:44:15;100489.63;;;0.52;100.00
69842;BME280;57138;51.326;-0.068;2024-01-07T04:46:40;100491.66;;;0.48;100.00
69842;BME280;57138;51.326;-0.068;2024-01-07T04:49:06;100490.78;;;0.48;100.00
69842;BME280;57138;51.326;-0.068;2024-01-07T04:51:35;100445.53;;;0.20;100.00
69842;BME280;57138;51.326;-0.068;2024-01-07T04:54:02;100485.28;;;0.40;100.00
69842;BME280;57138;51.326;-0.068;2024-01-07T04:56:27;100449.38;;;0.16;100.00
69842;BME280;57138;51.326;-0.068;2024-01-07T04:58:53;100445.06;;;0.15;100.00
69842;BME280;57138;51.326;-0.068;2024-01-07T05:01:18;100497.63;;;0.39;100.00
69842;BME280;57138;51.326;-0.068;2024-01-07T05:03:44;100471.59;;;0.23;100.00
69842;BME280;57138;51.326;-0.068;2024-01-07T05:06:09;100472.06;;;0.17;100.00
69842;BME280;57138;51.326;-0.068;2024-01-07T05:08:36;100506.56;;;0.37;100.00
69842;BME280;57138;51.326;-0.068;2024-01-07T05:11:03;100515.50;;;0.34;100.00
69842;BME280;57138;51.326;-0.068;2024-01-07T05:13:29;100484.03;;;0.21;100.00
69842;BME280;57138;51.326;-0.068;2024-01-07T05:15:54;100492.03;;;0.20;100.00
69842;BME280;57138;51.326;-0.068;2024-01-07T05:18:21;100496.97;;;0.24;100.00
69842;BME280;57138;51.326;-0.068;2024-01-07T05:20:49;100515.03;;;0.29;100.00
69842;BME280;57138;51.326;-0.068;2024-01-07T05:23:14;100479.69;;;0.09;100.00
69842;BME280;57138;51.326;-0.068;2024-01-07T05:25:41;100496.47;;;0.19;100.00
69842;BME280;57138;51.326;-0.068;2024-01-07T05:28:08;100530.47;;;0.33;100.00
69842;BME280;57138;51.326;-0.068;2024-01-07T05:30:33;100537.41;;;0.34;100.00
69842;BME280;57138;51.326;-0.068;2024-01-07T05:32:59;100526.66;;;0.38;100.00
69842;BME280;57138;51.326;-0.068;2024-01-07T05:35:24;100507.25;;;0.27;100.00
69842;BME280;57138;51.326;-0.068;2024-01-07T05:37:50;100486.22;;;0.03;100.00
69842;BME280;57138;51.326;-0.068;2024-01-07T05:40:16;100535.72;;;0.33;100.00
69842;BME280;57138;51.326;-0.068;2024-01-07T05:42:41;100550.59;;;0.46;100.00
69842;BME280;57138;51.326;-0.068;2024-01-07T05:45:07;100546.50;;;0.42;100.00
69842;BME280;57138;51.326;-0.068;2024-01-07T05:47:32;100552.06;;;0.50;100.00
69842;BME280;57138;51.326;-0.068;2024-01-07T05:49:58;100555.41;;;0.52;100.00
69842;BME280;57138;51.326;-0.068;2024-01-07T05:52:23;100557.06;;;0.53;100.00
69842;BME280;57138;51.326;-0.068;2024-01-07T05:54:49;100565.34;;;0.60;100.00
69842;BME280;57138;51.326;-0.068;2024-01-07T05:57:14;100563.50;;;0.49;100.00
69842;BME280;57138;51.326;-0.068;2024-01-07T05:59:40;100566.28;;;0.59;100.00
69842;BME280;57138;51.326;-0.068;2024-01-07T06:02:05;100552.28;;;0.47;100.00
69842;BME280;57138;51.326;-0.068;2024-01-07T06:04:31;100568.81;;;0.60;100.00
69842;BME280;57138;51.326;-0.068;2024-01-07T06:06:56;100575.53;;;0.64;100.00
69842;BME280;57138;51.326;-0.068;2024-01-07T06:09:22;100541.97;;;0.44;100.00
69842;BME280;57138;51.326;-0.068;2024-01-07T06:11:47;100556.09;;;0.43;100.00
69842;BME280;57138;51.326;-0.068;2024-01-07T06:14:13;100566.97;;;0.49;100.00
69842;BME280;57138;51.326;-0.068;2024-01-07T06:16:38;100548.75;;;0.35;100.00
69842;BME280;57138;51.326;-0.068;2024-01-07T06:19:03;100554.13;;;0.33;100.00
69842;BME280;57138;51.326;-0.068;2024-01-07T06:21:29;100594.88;;;0.52;100.00
69842;BME280;57138;51.326;-0.068;2024-01-07T06:23:55;100593.88;;;0.53;100.00
69842;BME280;57138;51.326;-0.068;2024-01-07T06:26:22;100568.97;;;0.34;100.00
69842;BME280;57138;51.326;-0.068;2024-01-07T06:28:47;100594.25;;;0.48;100.00
69842;BME280;57138;51.326;-0.068;2024-01-07T06:31:12;100580.66;;;0.30;100.00
69842;BME280;57138;51.326;-0.068;2024-01-07T06:33:38;100605.00;;;0.45;100.00
69842;BME280;57138;51.326;-0.068;2024-01-07T06:36:03;100618.75;;;0.49;100.00
69842;BME280;57138;51.326;-0.068;2024-01-07T06:38:29;100593.59;;;0.33;100.00
69842;BME280;57138;51.326;-0.068;2024-01-07T06:40:55;100613.50;;;0.49;100.00
69842;BME280;57138;51.326;-0.068;2024-01-07T06:43:21;100616.97;;;0.49;100.00
69842;BME280;57138;51.326;-0.068;2024-01-07T06:45:46;100572.28;;;0.25;100.00
69842;BME280;57138;51.326;-0.068;2024-01-07T06:48:11;100615.75;;;0.42;100.00
69842;BME280;57138;51.326;-0.068;2024-01-07T06:50:37;100596.19;;;0.22;100.00
69842;BME280;57138;51.326;-0.068;2024-01-07T06:53:02;100629.25;;;0.38;100.00
69842;BME280;57138;51.326;-0.068;2024-01-07T06:55:28;100624.56;;;0.30;100.00
69842;BME280;57138;51.326;-0.068;2024-01-07T06:57:53;100621.81;;;0.31;100.00
69842;BME280;57138;51.326;-0.068;2024-01-07T07:00:19;100633.31;;;0.42;100.00
69842;BME280;57138;51.326;-0.068;2024-01-07T07:02:51;100634.63;;;0.36;100.00
69842;BME280;57138;51.326;-0.068;2024-01-07T07:05:17;100619.84;;;0.22;100.00
69842;BME280;57138;51.326;-0.068;2024-01-07T07:07:42;100615.03;;;0.16;100.00
69842;BME280;57138;51.326;-0.068;2024-01-07T07:10:08;100636.56;;;0.21;100.00
69842;BME280;57138;51.326;-0.068;2024-01-07T07:12:33;100590.41;;;-0.07;100.00
69842;BME280;57138;51.326;-0.068;2024-01-07T07:14:59;100620.09;;;0.06;100.00
69842;BME280;57138;51.326;-0.068;2024-01-07T07:17:24;100644.69;;;0.18;100.00
69842;BME280;57138;51.326;-0.068;2024-01-07T07:19:49;100636.50;;;0.10;100.00
69842;BME280;57138;51.326;-0.068;2024-01-07T07:22:15;100602.94;;;-0.11;100.00
69842;BME280;57138;51.326;-0.068;2024-01-07T07:24:41;100629.28;;;0.01;100.00
69842;BME280;57138;51.326;-0.068;2024-01-07T07:27:07;100628.19;;;0.03;100.00
69842;BME280;57138;51.326;-0.068;2024-01-07T07:29:33;100654.91;;;0.10;100.00
69842;BME280;57138;51.326;-0.068;2024-01-07T07:31:59;100666.88;;;0.14;100.00
69842;BME280;57138;51.326;-0.068;2024-01-07T07:34:25;100639.06;;;-0.02;100.00
69842;BME280;57138;51.326;-0.068;2024-01-07T07:36:50;100648.41;;;0.03;100.00
69842;BME280;57138;51.326;-0.068;2024-01-07T07:39:17;100675.72;;;0.13;100.00
69842;BME280;57138;51.326;-0.068;2024-01-07T07:41:42;100686.03;;;0.16;100.00
69842;BME280;57138;51.326;-0.068;2024-01-07T07:44:08;100658.53;;;-0.04;100.00
69842;BME280;57138;51.326;-0.068;2024-01-07T07:46:33;100684.34;;;0.15;100.00
69842;BME280;57138;51.326;-0.068;2024-01-07T07:48:59;100677.81;;;0.08;100.00
69842;BME280;57138;51.326;-0.068;2024-01-07T07:51:26;100684.56;;;0.12;100.00
69842;BME280;57138;51.326;-0.068;2024-01-07T07:53:53;100683.31;;;0.05;100.00
69842;BME280;57138;51.326;-0.068;2024-01-07T07:56:18;100693.59;;;0.08;100.00
69842;BME280;57138;51.326;-0.068;2024-01-07T07:58:44;100695.13;;;-0.01;100.00
69842;BME280;57138;51.326;-0.068;2024-01-07T08:01:09;100700.25;;;0.01;100.00
69842;BME280;57138;51.326;-0.068;2024-01-07T08:03:34;100664.16;;;-0.22;100.00
69842;BME280;57138;51.326;-0.068;2024-01-07T08:06:01;100706.56;;;-0.02;100.00
69842;BME280;57138;51.326;-0.068;2024-01-07T08:08:27;100660.91;;;-0.38;100.00
69842;BME280;57138;51.326;-0.068;2024-01-07T08:10:52;100708.78;;;-0.09;100.00
69842;BME280;57138;51.326;-0.068;2024-01-07T08:13:19;100694.19;;;-0.26;100.00
69842;BME280;57138;51.326;-0.068;2024-01-07T08:15:44;100704.59;;;-0.24;100.00
69842;BME280;57138;51.326;-0.068;2024-01-07T08:18:10;100714.47;;;-0.15;100.00
69842;BME280;57138;51.326;-0.068;2024-01-07T08:20:35;100700.06;;;-0.22;100.00
69842;BME280;57138;51.326;-0.068;2024-01-07T08:23:01;100685.38;;;-0.38;100.00
69842;BME280;57138;51.326;-0.068;2024-01-07T08:25:26;100683.16;;;-0.44;100.00
69842;BME280;57138;51.326;-0.068;2024-01-07T08:27:52;100716.38;;;-0.17;100.00
69842;BME280;57138;51.326;-0.068;2024-01-07T08:30:17;100719.00;;;-0.17;100.00
69842;BME280;57138;51.326;-0.068;2024-01-07T08:32:43;100692.81;;;-0.31;100.00
69842;BME280;57138;51.326;-0.068;2024-01-07T08:35:08;100743.69;;;-0.07;100.00
69842;BME280;57138;51.326;-0.068;2024-01-07T08:37:34;100711.56;;;-0.23;100.00
69842;BME280;57138;51.326;-0.068;2024-01-07T08:40:00;100705.88;;;-0.30;100.00
69842;BME280;57138;51.326;-0.068;2024-01-07T08:42:26;100744.66;;;-0.08;100.00
69842;BME280;57138;51.326;-0.068;2024-01-07T08:44:52;100732.78;;;-0.13;100.00
69842;BME280;57138;51.326;-0.068;2024-01-07T08:47:17;100754.84;;;-0.03;100.00
69842;BME280;57138;51.326;-0.068;2024-01-07T08:49:42;100743.69;;;-0.07;100.00
69842;BME280;57138;51.326;-0.068;2024-01-07T08:52:08;100739.91;;;-0.03;100.00
69842;BME280;57138;51.326;-0.068;2024-01-07T08:54:34;100748.53;;;-0.01;100.00
69842;BME280;57138;51.326;-0.068;2024-01-07T08:57:00;100744.97;;;0.01;100.00
69842;BME280;57138;51.326;-0.068;2024-01-07T08:59:25;100725.63;;;-0.11;100.00
69842;BME280;57138;51.326;-0.068;2024-01-07T09:01:50;100755.03;;;0.07;100.00
69842;BME280;57138;51.326;-0.068;2024-01-07T09:04:16;100757.84;;;0.16;100.00
69842;BME280;57138;51.326;-0.068;2024-01-07T09:06:45;100748.72;;;0.22;100.00
69842;BME280;57138;51.326;-0.068;2024-01-07T09:09:11;100769.72;;;0.35;100.00
69842;BME280;57138;51.326;-0.068;2024-01-07T09:11:37;100773.06;;;0.37;100.00
69842;BME280;57138;51.326;-0.068;2024-01-07T09:14:02;100751.34;;;0.22;100.00
69842;BME280;57138;51.326;-0.068;2024-01-07T09:16:31;100787.19;;;0.36;100.00
69842;BME280;57138;51.326;-0.068;2024-01-07T09:18:56;100767.41;;;0.30;100.00
69842;BME280;57138;51.326;-0.068;2024-01-07T09:21:22;100760.13;;;0.34;100.00
69842;BME280;57138;51.326;-0.068;2024-01-07T09:23:50;100729.31;;;0.23;100.00
69842;BME280;57138;51.326;-0.068;2024-01-07T09:26:16;100762.53;;;0.50;100.00
69842;BME280;57138;51.326;-0.068;2024-01-07T09:28:41;100732.78;;;0.37;100.00
69842;BME280;57138;51.326;-0.068;2024-01-07T09:31:08;100782.69;;;0.62;100.00
69842;BME280;57138;51.326;-0.068;2024-01-07T09:33:36;100781.56;;;0.78;100.00
69842;BME280;57138;51.326;-0.068;2024-01-07T09:36:02;100793.78;;;0.79;100.00
69842;BME280;57138;51.326;-0.068;2024-01-07T09:38:27;100766.75;;;0.77;100.00
69842;BME280;57138;51.326;-0.068;2024-01-07T09:40:53;100794.00;;;0.76;100.00
69842;BME280;57138;51.326;-0.068;2024-01-07T09:43:19;100807.88;;;0.78;100.00
69842;BME280;57138;51.326;-0.068;2024-01-07T09:45:50;100798.22;;;0.78;100.00
69842;BME280;57138;51.326;-0.068;2024-01-07T09:48:17;100822.81;;;0.90;100.00
69842;BME280;57138;51.326;-0.068;2024-01-07T09:50:42;100823.56;;;0.92;100.00
69842;BME280;57138;51.326;-0.068;2024-01-07T09:53:13;100810.16;;;0.95;100.00
69842;BME280;57138;51.326;-0.068;2024-01-07T09:56:01;100810.16;;;0.95;100.00
69842;BME280;57138;51.326;-0.068;2024-01-07T09:58:29;100808.88;;;1.01;100.00
69842;BME280;57138;51.326;-0.068;2024-01-07T10:00:54;100817.63;;;1.01;100.00
69842;BME280;57138;51.326;-0.068;2024-01-07T10:03:20;100813.06;;;1.03;100.00
69842;BME280;57138;51.326;-0.068;2024-01-07T10:05:45;100787.84;;;0.88;100.00
69842;BME280;57138;51.326;-0.068;2024-01-07T10:08:11;100829.97;;;1.12;100.00
69842;BME280;57138;51.326;-0.068;2024-01-07T10:10:36;100836.59;;;1.18;100.00
69842;BME280;57138;51.326;-0.068;2024-01-07T10:13:02;100803.72;;;0.99;100.00
69842;BME280;57138;51.326;-0.068;2024-01-07T10:15:27;100818.50;;;1.13;100.00
69842;BME280;57138;51.326;-0.068;2024-01-07T10:18:06;100826.44;;;1.24;100.00
69842;BME280;57138;51.326;-0.068;2024-01-07T10:20:32;100818.88;;;1.20;100.00
69842;BME280;57138;51.326;-0.068;2024-01-07T10:23:02;100822.88;;;1.25;100.00
69842;BME280;57138;51.326;-0.068;2024-01-07T10:25:30;100786.75;;;1.03;100.00
69842;BME280;57138;51.326;-0.068;2024-01-07T10:28:01;100794.47;;;1.18;100.00
69842;BME280;57138;51.326;-0.068;2024-01-07T10:30:30;100793.41;;;1.20;100.00
69842;BME280;57138;51.326;-0.068;2024-01-07T10:32:59;100799.50;;;1.21;100.00
69842;BME280;57138;51.326;-0.068;2024-01-07T10:35:32;100789.19;;;1.18;100.00
69842;BME280;57138;51.326;-0.068;2024-01-07T10:37:59;100827.72;;;1.43;100.00
69842;BME280;57138;51.326;-0.068;2024-01-07T10:40:27;100800.00;;;1.26;100.00
69842;BME280;57138;51.326;-0.068;2024-01-07T10:42:54;100832.41;;;1.51;100.00
69842;BME280;57138;51.326;-0.068;2024-01-07T10:45:20;100804.47;;;1.37;100.00
69842;BME280;57138;51.326;-0.068;2024-01-07T10:47:49;100814.72;;;1.53;100.00
69842;BME280;57138;51.326;-0.068;2024-01-07T10:50:18;100822.50;;;1.54;100.00
69842;BME280;57138;51.326;-0.068;2024-01-07T10:52:48;100817.38;;;1.64;100.00
69842;BME280;57138;51.326;-0.068;2024-01-07T10:55:17;100812.78;;;1.55;100.00
69842;BME280;57138;51.326;-0.068;2024-01-07T10:57:47;100822.41;;;1.67;100.00
69842;BME280;57138;51.326;-0.068;2024-01-07T11:00:17;100828.78;;;1.76;100.00
69842;BME280;57138;51.326;-0.068;2024-01-07T11:02:51;100817.88;;;1.80;100.00
69842;BME280;57138;51.326;-0.068;2024-01-07T11:05:31;100832.75;;;1.82;100.00
69842;BME280;57138;51.326;-0.068;2024-01-07T11:08:19;100819.34;;;1.85;100.00
69842;BME280;57138;51.326;-0.068;2024-01-07T11:10:50;100797.47;;;1.71;100.00
69842;BME280;57138;51.326;-0.068;2024-01-07T11:13:36;100822.44;;;1.90;100.00
69842;BME280;57138;51.326;-0.068;2024-01-07T11:16:03;100837.91;;;1.94;100.00
69842;BME280;57138;51.326;-0.068;2024-01-07T11:18:30;100837.81;;;1.96;100.00
69842;BME280;57138;51.326;-0.068;2024-01-07T11:21:00;100833.03;;;2.01;100.00
69842;BME280;57138;51.326;-0.068;2024-01-07T11:23:32;100834.22;;;2.08;100.00
69842;BME280;57138;51.326;-0.068;2024-01-07T11:25:59;100837.72;;;2.09;100.00
69842;BME280;57138;51.326;-0.068;2024-01-07T11:31:19;100839.75;;;2.16;100.00
69842;BME280;57138;51.326;-0.068;2024-01-07T11:33:47;100850.69;;;2.23;100.00
69842;BME280;57138;51.326;-0.068;2024-01-07T11:36:15;100853.69;;;2.30;100.00
69842;BME280;57138;51.326;-0.068;2024-01-07T11:38:44;100828.59;;;2.24;100.00
69842;BME280;57138;51.326;-0.068;2024-01-07T11:41:12;100846.00;;;2.38;100.00
69842;BME280;57138;51.326;-0.068;2024-01-07T11:43:38;100845.03;;;2.39;100.00
69842;BME280;57138;51.326;-0.068;2024-01-07T11:46:04;100853.66;;;2.41;100.00
69842;BME280;57138;51.326;-0.068;2024-01-07T11:48:30;100834.97;;;2.33;100.00
69842;BME280;57138;51.326;-0.068;2024-01-07T11:50:55;100827.50;;;2.38;100.00
69842;BME280;57138;51.326;-0.068;2024-01-07T11:53:21;100812.63;;;2.26;100.00
69842;BME280;57138;51.326;-0.068;2024-01-07T11:55:46;100814.91;;;2.30;100.00
69842;BME280;57138;51.326;-0.068;2024-01-07T11:58:12;100829.91;;;2.41;100.00
69842;BME280;57138;51.326;-0.068;2024-01-07T12:00:38;100844.31;;;2.48;100.00
69842;BME280;57138;51.326;-0.068;2024-01-07T12:03:03;100854.16;;;2.58;100.00
69842;BME280;57138;51.326;-0.068;2024-01-07T12:05:30;100848.63;;;2.61;100.00
69842;BME280;57138;51.326;-0.068;2024-01-07T12:07:56;100829.44;;;2.47;100.00
69842;BME280;57138;51.326;-0.068;2024-01-07T12:10:23;100834.22;;;2.54;100.00
69842;BME280;57138;51.326;-0.068;2024-01-07T12:12:49;100840.97;;;2.58;100.00
69842;BME280;57138;51.326;-0.068;2024-01-07T12:15:16;100840.59;;;2.62;100.00
69842;BME280;57138;51.326;-0.068;2024-01-07T12:17:42;100820.56;;;2.48;99.51
69842;BME280;57138;51.326;-0.068;2024-01-07T12:20:15;100812.03;;;2.56;100.00
69842;BME280;57138;51.326;-0.068;2024-01-07T12:22:40;100844.03;;;2.74;100.00
69842;BME280;57138;51.326;-0.068;2024-01-07T12:25:06;100852.94;;;2.73;100.00
69842;BME280;57138;51.326;-0.068;2024-01-07T12:27:33;100807.84;;;2.54;100.00
69842;BME280;57138;51.326;-0.068;2024-01-07T12:30:00;100813.13;;;2.54;99.98
69842;BME280;57138;51.326;-0.068;2024-01-07T12:32:27;100845.16;;;2.72;100.00
69842;BME280;57138;51.326;-0.068;2024-01-07T12:34:52;100800.19;;;2.39;93.63
69842;BME280;57138;51.326;-0.068;2024-01-07T12:37:18;100823.44;;;2.45;97.88
69842;BME280;57138;51.326;-0.068;2024-01-07T12:39:43;100822.00;;;2.53;96.56